Terminal Aerodrome Forecast
Issued by NWS

Home | Current Version | Previous Version | Text Only | Print | Product List | Glossary On
Versions: 1 2 3 4 5 6 7 8 9 10 11 12 13 14 15 16 17 18 19 20 21 22 23 24
000
FTUS43 KILX 261100
TAFDEC
TAF
KDEC 261130Z 2612/2712 13009KT P6SM SCT060 BKN150
     FM261800 13010KT P6SM VCSH SCT025 BKN050
     FM262000 VRB06KT 3SM -SN OVC025
     FM270500 33006KT P6SM BKN025=

USA.gov is the U.S. government's official web portal to all federal, state and local government web resources and services.